createdAt,value
2023-03-16T07:03:29.819Z,45.53
2023-03-16T07:05:56.955Z,44.72
2023-03-16T07:08:24.307Z,44.12
2023-03-16T07:10:52.040Z,46.25
2023-03-16T07:13:18.837Z,44.26
2023-03-16T07:15:45.613Z,48.01
2023-03-16T07:18:12.375Z,49.35
2023-03-16T07:20:39.135Z,41.54
2023-03-16T07:23:05.880Z,42.14
2023-03-16T07:25:32.588Z,41.69
2023-03-16T07:27:59.319Z,43.03
2023-03-16T07:30:26.555Z,43.67
2023-03-16T07:32:53.596Z,42.60
2023-03-16T07:35:21.637Z,43.38
2023-03-16T07:37:48.454Z,42.85
2023-03-16T07:40:16.355Z,42.71
2023-03-16T07:42:44.484Z,42.51
2023-03-16T07:45:13.313Z,41.97
2023-03-16T07:47:40.002Z,41.17
2023-03-16T07:50:08.865Z,40.84
2023-03-16T07:52:37.495Z,40.31
2023-03-16T07:55:05.373Z,38.40
2023-03-16T07:57:32.048Z,36.80
2023-03-16T07:59:59.287Z,36.69
2023-03-16T08:02:26.162Z,35.68
2023-03-16T08:04:52.902Z,35.16
2023-03-16T08:07:19.638Z,39.19
2023-03-16T08:09:46.392Z,40.41
2023-03-16T08:12:13.249Z,40.54
2023-03-16T08:14:39.982Z,40.09
2023-03-16T08:17:07.492Z,39.51
2023-03-16T08:19:34.541Z,39.00
2023-03-16T08:22:02.265Z,37.99
2023-03-16T08:24:29.616Z,36.24
2023-03-16T08:26:57.578Z,35.24
2023-03-16T08:29:25.505Z,36.25
2023-03-16T08:31:57.908Z,35.08
2023-03-16T08:34:25.036Z,33.52
2023-03-16T08:36:51.799Z,34.96
2023-03-16T08:39:18.613Z,35.13
2023-03-16T08:41:47.015Z,33.45
2023-03-16T08:44:13.795Z,32.22
2023-03-16T08:46:40.848Z,30.69
2023-03-16T08:49:08.783Z,29.24
2023-03-16T08:51:35.577Z,29.84
2023-03-16T08:54:02.582Z,30.10
2023-03-16T08:56:30.699Z,30.04
2023-03-16T08:58:57.616Z,30.31
2023-03-16T09:01:25.813Z,27.23
2023-03-16T09:03:52.848Z,27.45
2023-03-16T09:06:20.000Z,28.19
2023-03-16T09:08:47.792Z,27.12
2023-03-16T09:11:18.803Z,25.52
2023-03-16T09:13:46.009Z,25.99
2023-03-16T09:16:13.970Z,25.72
2023-03-16T09:18:42.202Z,23.35
2023-03-16T09:21:13.201Z,23.68
2023-03-16T09:23:42.642Z,23.54
2023-03-16T09:26:10.638Z,21.98
2023-03-16T09:28:38.896Z,23.08
2023-03-16T09:31:07.112Z,23.32
2023-03-16T09:33:35.281Z,23.34
2023-03-16T09:36:02.900Z,23.01
2023-03-16T09:38:30.738Z,23.12
2023-03-16T09:41:02.964Z,23.50
2023-03-16T09:43:32.861Z,23.06
2023-03-16T09:46:00.070Z,21.86
2023-03-16T09:48:29.313Z,21.56
2023-03-16T09:50:56.682Z,20.58
2023-03-16T09:53:36.140Z,21.47
2023-03-16T09:56:10.537Z,21.59
2023-03-16T09:58:37.328Z,20.33
2023-03-16T10:01:24.257Z,20.38
2023-03-16T10:04:13.691Z,22.23
2023-03-16T10:07:03.463Z,22.56
2023-03-16T10:09:53.303Z,22.08
2023-03-16T10:12:21.462Z,21.70
2023-03-16T10:14:54.519Z,22.72
2023-03-16T10:17:29.107Z,22.47
2023-03-16T10:20:09.094Z,21.05
2023-03-16T10:22:41.001Z,20.44
2023-03-16T10:25:16.566Z,19.76
2023-03-16T10:27:46.102Z,19.01
2023-03-16T10:30:19.822Z,19.73
2023-03-16T10:32:47.362Z,19.08
2023-03-16T10:35:38.405Z,18.36
2023-03-16T10:38:08.247Z,17.66
2023-03-16T10:40:39.237Z,18.38
2023-03-16T10:43:13.379Z,18.21
2023-03-16T10:45:42.752Z,17.00
2023-03-16T10:48:14.979Z,16.74
2023-03-16T10:50:50.046Z,17.97
2023-03-16T10:53:20.788Z,18.72
2023-03-16T10:55:48.423Z,16.33
2023-03-16T10:58:27.513Z,16.03
2023-03-16T11:00:55.152Z,17.74
2023-03-16T11:03:32.267Z,17.91
2023-03-16T11:06:04.916Z,16.95
2023-03-16T11:08:37.426Z,16.20
2023-03-16T11:11:13.508Z,17.16
2023-03-16T11:13:45.355Z,19.86
2023-03-16T11:16:26.001Z,18.75
2023-03-16T11:18:59.205Z,17.27
2023-03-16T11:21:50.916Z,15.30
2023-03-16T11:24:33.363Z,14.70
2023-03-16T11:27:03.246Z,14.23
2023-03-16T11:29:36.029Z,14.23
2023-03-16T11:32:12.319Z,13.35
2023-03-16T11:34:40.984Z,12.79
2023-03-16T11:37:42.576Z,12.00
2023-03-16T11:40:29.575Z,12.09
2023-03-16T11:43:02.775Z,10.13
2023-03-16T11:45:43.195Z,10.28
2023-03-16T11:48:25.349Z,8.63
2023-03-16T11:51:02.778Z,7.94
2023-03-16T11:53:33.190Z,8.46
2023-03-16T11:56:29.038Z,9.07
2023-03-16T11:59:11.157Z,8.33
2023-03-16T12:02:02.676Z,8.24
2023-03-16T12:04:47.679Z,7.38
2023-03-16T12:07:24.598Z,7.45
2023-03-16T12:10:26.081Z,7.32
2023-03-16T12:13:04.831Z,7.39
2023-03-16T12:15:36.104Z,7.89
2023-03-16T12:18:10.915Z,8.74
2023-03-16T12:20:57.827Z,9.54
2023-03-16T12:23:30.450Z,9.95
2023-03-16T12:25:59.869Z,10.08
2023-03-16T12:28:29.119Z,11.29
2023-03-16T12:31:21.029Z,10.77
2023-03-16T12:33:57.001Z,9.76
2023-03-16T12:36:29.658Z,10.86
2023-03-16T12:39:05.417Z,9.71
2023-03-16T12:42:11.421Z,10.30
2023-03-16T12:44:49.931Z,8.62
2023-03-16T12:47:33.700Z,8.71
2023-03-16T12:50:27.334Z,7.79
2023-03-16T12:52:54.411Z,7.74
2023-03-16T12:55:33.563Z,10.02
2023-03-16T12:58:06.344Z,8.50
2023-03-16T13:00:40.551Z,9.95
2023-03-16T13:03:15.430Z,8.73
2023-03-16T13:06:00.857Z,7.93
2023-03-16T13:08:29.005Z,6.75
2023-03-16T13:11:09.249Z,6.83
2023-03-16T13:14:01.844Z,6.94
2023-03-16T13:16:32.305Z,6.69
2023-03-16T13:18:59.412Z,6.77
2023-03-16T13:21:26.092Z,8.43
2023-03-16T13:23:58.372Z,7.67
2023-03-16T13:26:47.513Z,7.39
2023-03-16T13:29:22.239Z,7.84
2023-03-16T13:31:49.976Z,9.14
2023-03-16T13:34:23.315Z,8.39
2023-03-16T13:36:53.865Z,7.63
2023-03-16T13:39:31.524Z,8.94
2023-03-16T13:42:14.945Z,7.92
2023-03-16T13:44:42.011Z,7.56
2023-03-16T13:47:13.862Z,6.72
2023-03-16T13:49:47.380Z,6.73
2023-03-16T13:52:29.968Z,6.18
2023-03-16T13:54:58.377Z,5.63
2023-03-16T13:57:28.460Z,5.66
2023-03-16T14:00:18.825Z,5.85
2023-03-16T14:02:47.213Z,5.44
2023-03-16T14:05:20.440Z,4.97
2023-03-16T14:07:48.702Z,6.56
2023-03-16T14:10:17.153Z,6.63
2023-03-16T14:12:58.162Z,5.67
2023-03-16T14:15:28.678Z,5.59
2023-03-16T14:18:08.366Z,5.51
2023-03-16T14:20:41.248Z,5.29
2023-03-16T14:23:24.522Z,5.53
2023-03-16T14:25:53.556Z,5.24
2023-03-16T14:28:27.462Z,5.04
2023-03-16T14:31:02.265Z,5.41
2023-03-16T14:33:31.911Z,5.35
2023-03-16T14:36:00.831Z,5.18
2023-03-16T14:38:33.516Z,5.40
2023-03-16T14:41:23.637Z,5.65
2023-03-16T14:43:54.277Z,5.46
2023-03-16T14:46:28.466Z,5.48
2023-03-16T14:49:24.902Z,5.58
2023-03-16T14:51:55.086Z,5.42
2023-03-16T14:54:22.478Z,5.42
2023-03-16T14:56:54.698Z,5.72
2023-03-16T14:59:22.039Z,5.31
2023-03-16T15:01:50.359Z,5.14
2023-03-16T15:04:21.285Z,4.99
2023-03-16T15:06:48.445Z,5.31
2023-03-16T15:09:31.474Z,5.57
2023-03-16T15:11:58.346Z,5.42
2023-03-16T15:14:43.668Z,5.76
2023-03-16T15:17:10.980Z,5.94
2023-03-16T15:19:37.829Z,6.13
2023-03-16T15:22:05.077Z,6.06
2023-03-16T15:24:33.304Z,6.40
2023-03-16T15:27:00.638Z,6.11
2023-03-16T15:29:27.328Z,6.42
2023-03-16T15:31:54.762Z,6.26
2023-03-16T15:34:22.714Z,6.18
2023-03-16T15:36:49.731Z,6.94
2023-03-16T15:39:25.085Z,7.55
2023-03-16T15:41:51.887Z,8.84
2023-03-16T15:44:18.667Z,10.07
2023-03-16T15:46:45.457Z,10.90
2023-03-16T15:49:12.289Z,12.32
2023-03-16T15:51:39.046Z,13.48
2023-03-16T15:54:08.527Z,14.77
2023-03-16T15:56:52.659Z,16.03
2023-03-16T15:59:20.642Z,16.51
2023-03-16T16:01:48.444Z,17.91
2023-03-16T16:04:19.685Z,18.70
2023-03-16T16:06:47.828Z,18.56
2023-03-16T16:09:14.699Z,18.93
2023-03-16T16:11:41.866Z,19.63
2023-03-16T16:14:13.295Z,20.26
2023-03-16T16:16:40.733Z,21.36
2023-03-16T16:19:13.271Z,20.89
2023-03-16T16:21:40.058Z,21.56
2023-03-16T16:24:07.087Z,21.36
2023-03-16T16:26:53.740Z,19.79
2023-03-16T16:29:24.067Z,20.23
2023-03-16T16:31:54.330Z,22.08
2023-03-16T16:34:24.548Z,22.36
2023-03-16T16:36:52.068Z,23.20
2023-03-16T16:39:18.808Z,23.61
2023-03-16T16:41:46.026Z,24.65
2023-03-16T16:44:21.610Z,23.28
2023-03-16T16:46:50.350Z,23.96
2023-03-16T16:49:22.520Z,23.53
2023-03-16T16:51:49.297Z,23.84
2023-03-16T16:54:19.000Z,24.71
2023-03-16T16:56:46.552Z,25.41
2023-03-16T16:59:22.830Z,26.73
2023-03-16T17:01:57.415Z,26.75
2023-03-16T17:04:27.471Z,26.71
2023-03-16T17:06:58.847Z,28.16
2023-03-16T17:09:27.223Z,28.40
2023-03-16T17:11:56.182Z,28.11
2023-03-16T17:14:23.998Z,27.96
2023-03-16T17:16:51.846Z,28.06
2023-03-16T17:19:22.481Z,28.21
2023-03-16T17:21:50.951Z,28.50
2023-03-16T17:24:17.732Z,29.71
2023-03-16T17:26:50.407Z,30.10
2023-03-16T17:29:17.568Z,30.02
2023-03-16T17:31:44.270Z,30.55
2023-03-16T17:34:19.894Z,30.73
2023-03-16T17:36:46.887Z,30.49
2023-03-16T17:39:28.325Z,30.56
2023-03-16T17:41:57.678Z,30.69
2023-03-16T17:44:25.491Z,30.85
2023-03-16T17:46:53.009Z,31.66
2023-03-16T17:49:20.637Z,32.21
2023-03-16T17:51:47.877Z,32.42
2023-03-16T17:54:14.625Z,31.96
2023-03-16T17:56:41.802Z,32.56
2023-03-16T17:59:20.424Z,34.91
2023-03-16T18:01:47.332Z,33.55
2023-03-16T18:04:18.190Z,33.57
2023-03-16T18:06:47.532Z,33.38
2023-03-16T18:09:15.846Z,33.35
2023-03-16T18:11:48.008Z,33.81
2023-03-16T18:14:37.079Z,36.75
2023-03-16T18:17:15.934Z,37.50
2023-03-16T18:19:43.860Z,36.60
2023-03-16T18:22:19.313Z,38.48
2023-03-16T18:24:46.869Z,37.75
2023-03-16T18:27:13.941Z,38.03
2023-03-16T18:29:41.993Z,40.32
2023-03-16T18:32:21.610Z,39.20
2023-03-16T18:34:48.550Z,39.67
2023-03-16T18:37:24.435Z,38.92
2023-03-16T18:39:52.707Z,39.19
2023-03-16T18:42:21.658Z,39.33
2023-03-16T18:44:48.932Z,40.66
2023-03-16T18:47:20.772Z,40.93
2023-03-16T18:49:49.439Z,39.65
2023-03-16T18:52:19.975Z,39.64
2023-03-16T18:54:48.168Z,41.18
2023-03-16T18:57:18.686Z,39.87
2023-03-16T18:59:45.653Z,42.37
2023-03-16T19:02:41.543Z,40.44
2023-03-16T19:05:13.654Z,39.47
2023-03-16T19:07:42.388Z,41.42
2023-03-16T19:10:21.441Z,41.52
2023-03-16T19:12:48.883Z,40.87
2023-03-16T19:15:22.649Z,40.52
2023-03-16T19:17:49.820Z,38.11
2023-03-16T19:20:18.450Z,39.12
2023-03-16T19:22:46.649Z,38.73
2023-03-16T19:25:24.819Z,38.87
2023-03-16T19:27:51.970Z,38.75
2023-03-16T19:30:30.576Z,39.81
2023-03-16T19:32:58.098Z,40.26
2023-03-16T19:35:44.323Z,40.90
2023-03-16T19:38:14.284Z,41.03
2023-03-16T19:40:41.556Z,41.40
2023-03-16T19:43:27.172Z,42.32
2023-03-16T19:45:56.256Z,42.67
2023-03-16T19:48:33.239Z,41.76
2023-03-16T19:51:00.944Z,43.63
2023-03-16T19:53:27.696Z,43.63
2023-03-16T19:55:54.604Z,43.72
2023-03-16T19:58:31.205Z,43.46
2023-03-16T20:00:58.974Z,44.48
2023-03-16T20:03:26.159Z,44.32
2023-03-16T20:05:53.367Z,44.87
2023-03-16T20:08:25.706Z,44.24
2023-03-16T20:10:55.048Z,45.04
2023-03-16T20:13:22.180Z,45.56
2023-03-16T20:15:48.897Z,46.05
2023-03-16T20:18:17.180Z,45.78
2023-03-16T20:20:44.651Z,46.12
2023-03-16T20:23:18.929Z,47.49
2023-03-16T20:25:46.649Z,47.00
2023-03-16T20:28:19.726Z,47.73
2023-03-16T20:30:47.731Z,47.80
2023-03-16T20:33:18.702Z,47.41
2023-03-16T20:35:46.297Z,48.17
2023-03-16T20:38:14.327Z,48.03
2023-03-16T20:40:44.904Z,48.54
2023-03-16T20:43:24.557Z,48.75
2023-03-16T20:45:53.483Z,48.55
2023-03-16T20:48:20.506Z,48.18
2023-03-16T20:50:47.974Z,49.18
2023-03-16T20:53:14.694Z,49.37
2023-03-16T20:55:41.649Z,49.16
2023-03-16T20:58:28.081Z,48.97
2023-03-16T21:00:58.268Z,48.91
2023-03-16T21:03:28.331Z,49.11
2023-03-16T21:05:58.438Z,49.48
2023-03-16T21:08:26.345Z,49.79
2023-03-16T21:10:53.725Z,49.06
2023-03-16T21:13:31.348Z,50.16
2023-03-16T21:15:59.733Z,50.04
2023-03-16T21:18:26.647Z,49.11
2023-03-16T21:20:53.728Z,49.97
2023-03-16T21:23:22.653Z,50.04
2023-03-16T21:25:58.551Z,50.23
2023-03-16T21:28:27.777Z,51.09
2023-03-16T21:30:57.447Z,51.17
2023-03-16T21:33:27.086Z,50.87
2023-03-16T21:35:53.822Z,52.15
2023-03-16T21:38:21.005Z,51.52
2023-03-16T21:40:48.209Z,51.20
2023-03-16T21:43:15.660Z,51.42
2023-03-16T21:45:43.113Z,52.12
2023-03-16T21:48:17.859Z,51.63
2023-03-16T21:50:44.816Z,50.63
2023-03-16T21:53:22.911Z,50.14
2023-03-16T21:55:51.619Z,51.91
2023-03-16T21:58:18.788Z,51.27
2023-03-16T22:00:46.804Z,52.24
2023-03-16T22:03:49.420Z,52.30
2023-03-16T22:06:16.910Z,51.79
2023-03-16T22:08:44.024Z,52.02
2023-03-16T22:11:22.401Z,52.10
2023-03-16T22:13:51.986Z,52.33
2023-03-16T22:16:21.019Z,52.51
2023-03-16T22:18:49.686Z,53.42
2023-03-16T22:21:28.966Z,52.38
2023-03-16T22:23:56.493Z,52.05
2023-03-16T22:26:23.684Z,51.68
2023-03-16T22:28:53.236Z,52.27
2023-03-16T22:31:25.978Z,53.08
2023-03-16T22:33:52.674Z,53.27
2023-03-16T22:36:21.150Z,53.20
2023-03-16T22:38:59.832Z,52.69
2023-03-16T22:41:26.733Z,53.81
2023-03-16T22:43:54.141Z,53.41
2023-03-16T22:46:26.609Z,53.31
2023-03-16T22:49:52.549Z,52.39
2023-03-16T22:52:19.759Z,52.24
2023-03-16T22:54:46.625Z,52.76
2023-03-16T22:57:14.450Z,52.64
2023-03-16T22:59:41.941Z,53.02
2023-03-16T23:02:14.868Z,53.00
2023-03-16T23:04:41.951Z,53.42
2023-03-16T23:07:12.068Z,54.73
2023-03-16T23:09:39.114Z,54.27
2023-03-16T23:12:14.213Z,53.92
2023-03-16T23:14:41.347Z,53.92
2023-03-16T23:17:18.632Z,53.92
2023-03-16T23:19:45.958Z,54.45
2023-03-16T23:22:12.757Z,54.30
2023-03-16T23:24:39.862Z,53.56
2023-03-16T23:27:22.273Z,54.35
2023-03-16T23:29:49.182Z,55.02
2023-03-16T23:32:18.902Z,54.33
2023-03-16T23:34:46.040Z,55.20
2023-03-16T23:37:12.759Z,55.24
2023-03-16T23:39:40.105Z,55.33
2023-03-16T23:42:07.236Z,55.19
2023-03-16T23:44:34.036Z,55.43
2023-03-16T23:47:00.918Z,56.15
2023-03-16T23:49:30.609Z,56.19
2023-03-16T23:51:58.070Z,55.44
2023-03-16T23:54:28.305Z,56.03
2023-03-16T23:56:55.592Z,55.43
2023-03-16T23:59:23.526Z,55.60
